createdAt,value
2019-02-14T00:00:08.550Z,103502.50
2019-02-14T00:01:14.340Z,103495.03
2019-02-14T00:02:18.792Z,103490.73
2019-02-14T00:03:22.932Z,103492.03
2019-02-14T00:07:37.265Z,103497.14
2019-02-14T00:08:41.456Z,103493.17
2019-02-14T00:10:49.041Z,103495.23
2019-02-14T00:19:19.007Z,103478.34
2019-02-14T00:23:33.268Z,103472.16
2019-02-14T00:24:37.412Z,103467.86
2019-02-14T00:25:41.657Z,103472.09
2019-02-14T00:27:50.148Z,103472.16
2019-02-14T00:29:57.685Z,103465.67
2019-02-14T00:31:01.878Z,103468.59
2019-02-14T00:33:09.635Z,103469.41
2019-02-14T00:37:24.017Z,103471.19
2019-02-14T00:40:34.866Z,103473.38
2019-02-14T00:42:42.380Z,103469.00
2019-02-14T00:44:49.994Z,103473.22
2019-02-14T00:45:54.277Z,103477.53
2019-02-14T00:49:05.164Z,103482.73
2019-02-14T00:51:12.754Z,103486.22
2019-02-14T01:00:43.939Z,103476.02
2019-02-14T01:04:58.299Z,103466.92
2019-02-14T01:06:02.504Z,103474.31
2019-02-14T01:07:06.719Z,103468.22
2019-02-14T01:09:14.300Z,103471.23
2019-02-14T01:10:18.514Z,103468.95
2019-02-14T01:13:29.575Z,103458.08
2019-02-14T01:15:37.065Z,103463.27
2019-02-14T01:18:47.951Z,103458.56
2019-02-14T01:20:56.563Z,103456.77
2019-02-14T01:22:00.775Z,103453.36
2019-02-14T01:24:08.360Z,103457.67
2019-02-14T01:25:12.569Z,103455.48
2019-02-14T01:27:20.101Z,103451.58
2019-02-14T01:30:30.993Z,103447.64
2019-02-14T01:33:41.888Z,103450.69
2019-02-14T01:35:49.493Z,103453.28
2019-02-14T01:40:05.393Z,103447.95
2019-02-14T01:41:09.594Z,103453.16
2019-02-14T01:44:20.492Z,103453.64
2019-02-14T01:46:28.004Z,103453.16
2019-02-14T01:48:35.539Z,103446.66
2019-02-14T01:51:46.521Z,103444.55
2019-02-14T01:52:51.680Z,103446.25
2019-02-14T01:54:59.236Z,103444.95
2019-02-14T01:56:03.435Z,103435.38
2019-02-14T01:57:07.640Z,103440.09
2019-02-14T01:58:11.848Z,103438.78
2019-02-14T01:59:16.041Z,103437.89
2019-02-14T02:01:23.692Z,103438.30
2019-02-14T02:04:34.619Z,103432.61
2019-02-14T02:05:38.820Z,103424.81
2019-02-14T02:08:49.805Z,103423.39
2019-02-14T02:12:00.775Z,103419.91
2019-02-14T02:13:05.069Z,103429.89
2019-02-14T02:15:13.484Z,103432.81
2019-02-14T02:17:21.293Z,103430.63
2019-02-14T02:22:39.031Z,103430.86
2019-02-14T02:24:46.619Z,103422.63
2019-02-14T02:25:51.037Z,103422.18
2019-02-14T02:26:55.175Z,103417.88
2019-02-14T02:27:59.432Z,103416.58
2019-02-14T02:31:13.991Z,103413.45
2019-02-14T02:33:21.792Z,103409.95
2019-02-14T02:34:25.949Z,103414.75
2019-02-14T02:35:31.137Z,103411.25
2019-02-14T02:37:38.880Z,103419.45
2019-02-14T02:38:43.037Z,103422.94
2019-02-14T02:39:47.227Z,103422.05
2019-02-14T02:44:01.597Z,103421.08
2019-02-14T02:46:12.344Z,103414.47
2019-02-14T02:47:16.468Z,103410.98
2019-02-14T02:51:30.724Z,103400.99
2019-02-14T02:53:38.293Z,103395.75
2019-02-14T02:55:45.770Z,103396.16
2019-02-14T03:02:06.779Z,103398.11
2019-02-14T03:06:21.079Z,103406.80
2019-02-14T03:09:32.357Z,103413.61
2019-02-14T03:10:36.458Z,103421.89
2019-02-14T03:15:54.111Z,103417.02
2019-02-14T03:18:01.700Z,103421.31
2019-02-14T03:19:06.044Z,103410.89
2019-02-14T03:21:16.460Z,103402.20
2019-02-14T03:22:20.623Z,103402.20
2019-02-14T03:23:24.801Z,103404.14
2019-02-14T03:24:29.071Z,103399.44
2019-02-14T03:25:33.177Z,103403.74
2019-02-14T03:27:40.762Z,103404.23
2019-02-14T03:28:44.884Z,103415.02
2019-02-14T03:30:52.413Z,103418.91
2019-02-14T03:32:59.962Z,103426.70
2019-02-14T03:34:04.103Z,103427.52
2019-02-14T03:37:15.148Z,103425.69
2019-02-14T03:38:19.558Z,103428.28
2019-02-14T03:40:27.136Z,103429.50
2019-02-14T03:47:51.631Z,103442.00
2019-02-14T03:48:55.865Z,103442.48
2019-02-14T03:50:00.014Z,103446.78
2019-02-14T03:51:04.163Z,103445.89
2019-02-14T03:53:11.687Z,103453.52
2019-02-14T03:58:29.333Z,103468.55
2019-02-14T03:59:33.511Z,103459.38
2019-02-14T04:00:37.703Z,103465.88
2019-02-14T04:01:41.852Z,103464.09
2019-02-14T04:05:56.161Z,103463.83
2019-02-14T04:07:00.311Z,103460.84
2019-02-14T04:10:13.807Z,103464.67
2019-02-14T04:12:21.400Z,103468.22
2019-02-14T04:18:42.677Z,103474.23
2019-02-14T04:22:57.203Z,103481.22
2019-02-14T04:24:01.358Z,103478.13
2019-02-14T04:25:06.943Z,103483.73
2019-02-14T04:27:14.554Z,103489.77
2019-02-14T04:28:18.739Z,103489.67
2019-02-14T04:31:29.654Z,103493.39
2019-02-14T04:33:37.201Z,103506.29
2019-02-14T04:36:48.095Z,103511.08
2019-02-14T04:37:52.276Z,103511.97
2019-02-14T04:38:56.483Z,103512.46
2019-02-14T04:40:01.663Z,103513.27
2019-02-14T04:43:13.607Z,103525.76
2019-02-14T04:47:27.968Z,103514.17
2019-02-14T04:48:32.184Z,103511.57
2019-02-14T04:50:39.774Z,103509.47
2019-02-14T04:51:43.929Z,103506.78
2019-02-14T04:57:01.616Z,103518.23
2019-02-14T04:58:05.824Z,103516.05
2019-02-14T04:59:09.963Z,103513.77
2019-02-14T05:00:14.947Z,103520.56
2019-02-14T05:03:26.851Z,103507.77
2019-02-14T05:05:34.423Z,103504.05
2019-02-14T05:12:58.792Z,103502.00
2019-02-14T05:14:02.967Z,103500.62
2019-02-14T05:15:08.539Z,103504.11
2019-02-14T05:20:26.224Z,103507.85
2019-02-14T05:27:50.643Z,103515.46
2019-02-14T05:28:54.746Z,103515.38
2019-02-14T05:29:58.901Z,103518.77
2019-02-14T05:35:16.816Z,103514.34
2019-02-14T05:38:27.770Z,103519.03
2019-02-14T05:39:31.893Z,103516.34
2019-02-14T05:40:36.087Z,103516.66
2019-02-14T05:41:40.295Z,103519.34
2019-02-14T05:42:44.642Z,103521.94
2019-02-14T05:43:48.775Z,103513.27
2019-02-14T05:47:00.895Z,103518.86
2019-02-14T05:48:04.996Z,103513.17
2019-02-14T05:50:14.044Z,103515.68
2019-02-14T05:51:20.083Z,103507.75
2019-02-14T05:53:28.532Z,103509.77
2019-02-14T05:54:32.706Z,103510.17
2019-02-14T05:55:36.908Z,103512.27
2019-02-14T05:56:41.105Z,103508.78
2019-02-14T05:57:45.309Z,103511.78
2019-02-14T06:00:56.296Z,103509.94
2019-02-14T06:02:00.453Z,103513.92
2019-02-14T06:03:04.697Z,103514.77
2019-02-14T06:05:12.229Z,103517.22
2019-02-14T06:06:16.389Z,103520.71
2019-02-14T06:08:23.907Z,103522.81
2019-02-14T06:09:28.079Z,103520.12
2019-02-14T06:10:32.233Z,103527.10
2019-02-14T06:11:36.385Z,103526.61
2019-02-14T06:13:43.911Z,103524.42
2019-02-14T06:16:54.865Z,103533.48
2019-02-14T06:19:02.380Z,103522.62
2019-02-14T06:21:13.203Z,103525.61
2019-02-14T06:25:27.570Z,103516.13
2019-02-14T06:27:35.171Z,103509.02
2019-02-14T06:30:46.142Z,103515.89
2019-02-14T06:36:03.806Z,103515.72
2019-02-14T06:39:14.751Z,103524.86
2019-02-14T06:40:18.956Z,103527.05
2019-02-14T06:43:29.847Z,103528.93
2019-02-14T06:44:34.009Z,103532.81
2019-02-14T06:46:41.634Z,103526.34
2019-02-14T06:48:49.147Z,103525.94
2019-02-14T06:49:53.305Z,103527.55
2019-02-14T06:50:57.530Z,103527.45
2019-02-14T06:56:15.180Z,103525.75
2019-02-14T06:57:19.380Z,103530.53
2019-02-14T06:59:26.905Z,103526.62
2019-02-14T07:00:31.076Z,103535.38
2019-02-14T07:02:38.660Z,103534.06
2019-02-14T07:06:52.929Z,103539.80
2019-02-14T07:10:05.855Z,103534.89
2019-02-14T07:11:10.034Z,103525.02
2019-02-14T07:12:14.135Z,103522.02
2019-02-14T07:13:18.349Z,103528.56
2019-02-14T07:17:32.611Z,103526.87
2019-02-14T07:19:40.199Z,103527.77
2019-02-14T07:20:44.335Z,103526.46
2019-02-14T07:22:52.196Z,103529.05
2019-02-14T07:23:56.339Z,103527.36
2019-02-14T07:26:03.878Z,103529.64
2019-02-14T07:27:08.097Z,103527.94
2019-02-14T07:28:12.262Z,103522.36
2019-02-14T07:29:17.334Z,103528.13
2019-02-14T07:31:26.657Z,103526.34
2019-02-14T07:33:34.243Z,103532.88
2019-02-14T07:36:45.220Z,103539.85
2019-02-14T07:37:49.435Z,103546.42
2019-02-14T07:39:57.015Z,103551.18
2019-02-14T07:43:07.907Z,103558.40
2019-02-14T07:44:12.103Z,103552.81
2019-02-14T07:45:17.019Z,103557.38
2019-02-14T07:46:23.009Z,103549.59
2019-02-14T07:47:27.472Z,103556.66
2019-02-14T07:49:35.069Z,103555.02
2019-02-14T07:50:40.293Z,103553.82
2019-02-14T07:51:44.505Z,103551.32
2019-02-14T07:52:48.642Z,103560.58
2019-02-14T07:54:56.937Z,103563.50
2019-02-14T07:57:04.707Z,103571.38
2019-02-14T07:58:08.920Z,103575.81
2019-02-14T08:01:21.792Z,103578.52
2019-02-14T08:04:33.717Z,103575.53
2019-02-14T08:05:37.931Z,103577.02
2019-02-14T08:09:53.319Z,103580.16
2019-02-14T08:12:00.841Z,103582.53
2019-02-14T08:13:05.019Z,103584.81
2019-02-14T08:15:13.475Z,103582.63
2019-02-14T08:17:21.315Z,103576.55
2019-02-14T08:20:33.212Z,103572.83
2019-02-14T08:21:37.426Z,103569.48
2019-02-14T08:25:52.713Z,103566.97
2019-02-14T08:26:56.868Z,103570.37
2019-02-14T08:30:12.573Z,103574.18
2019-02-14T08:31:16.805Z,103571.44
2019-02-14T08:32:20.953Z,103574.58
2019-02-14T08:33:25.213Z,103575.42
2019-02-14T08:34:29.395Z,103572.64
2019-02-14T08:35:33.525Z,103570.22
2019-02-14T08:36:37.667Z,103561.67
2019-02-14T08:38:45.212Z,103554.45
2019-02-14T08:40:52.785Z,103555.25
2019-02-14T08:44:03.631Z,103566.94
2019-02-14T08:45:10.331Z,103561.11
2019-02-14T08:47:17.842Z,103572.18
2019-02-14T08:52:35.569Z,103576.86
2019-02-14T08:56:49.929Z,103576.41
2019-02-14T08:58:57.462Z,103585.22
2019-02-14T09:01:05.029Z,103585.89
2019-02-14T09:02:09.405Z,103589.73
2019-02-14T09:03:13.829Z,103587.48
2019-02-14T09:04:17.986Z,103594.42
2019-02-14T09:05:22.231Z,103592.28
2019-02-14T09:06:26.411Z,103590.24
2019-02-14T09:08:34.017Z,103591.33
2019-02-14T09:09:38.133Z,103588.34
2019-02-14T09:10:42.371Z,103588.26
2019-02-14T09:11:46.533Z,103581.45
2019-02-14T09:13:54.061Z,103576.33
2019-02-14T09:14:58.217Z,103575.58
2019-02-14T09:16:02.366Z,103576.50
2019-02-14T09:18:09.902Z,103574.63
2019-02-14T09:23:29.623Z,103583.58
2019-02-14T09:25:37.144Z,103585.59
2019-02-14T09:27:44.684Z,103584.16
2019-02-14T09:29:52.283Z,103581.10
2019-02-14T09:37:17.018Z,103583.67
2019-02-14T09:38:21.220Z,103579.62
2019-02-14T09:40:28.774Z,103578.45
2019-02-14T09:42:36.396Z,103576.95
2019-02-14T09:43:40.807Z,103579.69
2019-02-14T09:45:48.403Z,103578.64
2019-02-14T09:46:52.912Z,103572.86
2019-02-14T09:50:06.537Z,103571.17
2019-02-14T09:53:17.734Z,103573.86
2019-02-14T09:55:25.534Z,103567.31
2019-02-14T09:56:29.714Z,103572.73
2019-02-14T09:58:37.520Z,103572.56
2019-02-14T09:59:41.939Z,103569.39
2019-02-14T10:00:46.531Z,103581.16
2019-02-14T10:02:54.136Z,103574.48
2019-02-14T10:03:58.361Z,103574.61
2019-02-14T10:06:05.918Z,103578.63
2019-02-14T10:09:16.859Z,103580.08
2019-02-14T10:10:22.956Z,103575.34
2019-02-14T10:11:27.156Z,103578.97
2019-02-14T10:15:42.239Z,103580.17
2019-02-14T10:17:49.824Z,103576.77
2019-02-14T10:19:57.425Z,103577.55
2019-02-14T10:21:01.621Z,103576.74
2019-02-14T10:22:05.842Z,103573.73
2019-02-14T10:24:13.392Z,103580.50
2019-02-14T10:25:17.629Z,103580.94
2019-02-14T10:26:21.801Z,103580.16
2019-02-14T10:28:29.358Z,103583.37
2019-02-14T10:31:40.405Z,103580.05
2019-02-14T10:36:58.091Z,103577.95
2019-02-14T10:39:05.743Z,103573.93
2019-02-14T10:41:15.992Z,103579.20
2019-02-14T10:44:26.954Z,103579.63
2019-02-14T10:49:45.571Z,103592.30
2019-02-14T10:53:59.897Z,103588.77
2019-02-14T10:55:06.996Z,103587.48
2019-02-14T10:57:14.638Z,103588.95
2019-02-14T10:58:19.073Z,103588.56
2019-02-14T11:00:26.961Z,103589.12
2019-02-14T11:03:37.937Z,103591.95
2019-02-14T11:04:42.137Z,103595.50
2019-02-14T11:05:46.347Z,103594.27
2019-02-14T11:06:50.605Z,103596.53
2019-02-14T11:08:58.144Z,103598.46
2019-02-14T11:10:02.751Z,103597.23
2019-02-14T11:12:10.358Z,103594.62
2019-02-14T11:13:14.557Z,103595.48
2019-02-14T11:18:33.730Z,103604.07
2019-02-14T11:20:41.267Z,103599.28
2019-02-14T11:21:45.427Z,103596.73
2019-02-14T11:23:53.098Z,103597.72
2019-02-14T11:24:59.186Z,103597.37
2019-02-14T11:26:03.369Z,103599.19
2019-02-14T11:28:10.911Z,103602.39
2019-02-14T11:30:18.478Z,103599.42
2019-02-14T11:32:26.045Z,103602.16
2019-02-14T11:34:33.633Z,103602.27
2019-02-14T11:38:47.989Z,103600.27
2019-02-14T11:39:52.192Z,103595.44
2019-02-14T11:40:56.363Z,103595.91
2019-02-14T11:42:00.602Z,103597.67
2019-02-14T11:44:08.192Z,103596.48
2019-02-14T11:45:19.082Z,103595.19
2019-02-14T11:48:30.025Z,103580.83
2019-02-14T11:49:34.585Z,103580.84
2019-02-14T11:52:46.376Z,103572.14
2019-02-14T11:53:50.539Z,103572.18
2019-02-14T11:54:54.709Z,103565.58
2019-02-14T11:55:58.967Z,103576.60
2019-02-14T11:58:06.773Z,103578.00
2019-02-14T12:00:19.849Z,103580.27
2019-02-14T12:01:23.980Z,103576.38
2019-02-14T12:03:31.551Z,103581.69
2019-02-14T12:04:35.769Z,103583.02
2019-02-14T12:05:39.963Z,103579.05
2019-02-14T12:10:57.711Z,103570.52
2019-02-14T12:14:09.363Z,103571.92
2019-02-14T12:15:13.951Z,103569.31
2019-02-14T12:17:21.510Z,103564.06
2019-02-14T12:19:29.100Z,103567.16
2019-02-14T12:20:33.309Z,103570.71
2019-02-14T12:24:47.611Z,103565.91
2019-02-14T12:25:51.847Z,103567.25
2019-02-14T12:26:56.104Z,103569.02
2019-02-14T12:28:00.389Z,103568.59
2019-02-14T12:31:14.835Z,103566.40
2019-02-14T12:32:19.000Z,103557.13
2019-02-14T12:33:23.277Z,103561.59
2019-02-14T12:34:27.403Z,103557.20
2019-02-14T12:35:31.573Z,103556.81
2019-02-14T12:37:39.447Z,103559.91
2019-02-14T12:39:47.253Z,103555.09
2019-02-14T12:41:55.816Z,103551.98
2019-02-14T12:44:03.452Z,103550.66
2019-02-14T12:45:20.224Z,103556.42
2019-02-14T12:50:31.577Z,103543.17
2019-02-14T12:52:39.120Z,103544.92
2019-02-14T12:54:46.733Z,103546.24
2019-02-14T12:56:54.321Z,103547.59
2019-02-14T12:57:58.475Z,103551.54
2019-02-14T13:02:19.655Z,103546.23
2019-02-14T13:06:34.013Z,103539.60
2019-02-14T13:07:38.220Z,103537.84
2019-02-14T13:08:42.416Z,103538.70
2019-02-14T13:09:46.572Z,103538.73
2019-02-14T13:11:54.172Z,103532.97
2019-02-14T13:12:58.622Z,103527.68
2019-02-14T13:15:10.304Z,103523.69
2019-02-14T13:18:21.294Z,103524.13
2019-02-14T13:19:25.492Z,103519.73
2019-02-14T13:20:29.901Z,103525.04
2019-02-14T13:21:34.096Z,103515.77
2019-02-14T13:22:38.287Z,103517.95
2019-02-14T13:23:42.518Z,103517.03
2019-02-14T13:25:50.197Z,103514.39
2019-02-14T13:27:57.807Z,103513.50
2019-02-14T13:30:09.419Z,103510.85
2019-02-14T13:31:13.585Z,103507.73
2019-02-14T13:32:17.744Z,103505.95
2019-02-14T13:34:25.389Z,103509.08
2019-02-14T13:35:29.544Z,103507.31
2019-02-14T13:36:33.789Z,103513.92
2019-02-14T13:38:41.377Z,103512.12
2019-02-14T13:40:48.912Z,103507.29
2019-02-14T13:41:53.117Z,103507.28
2019-02-14T13:42:57.588Z,103503.30
2019-02-14T13:44:01.785Z,103505.07
2019-02-14T13:45:09.274Z,103500.69
2019-02-14T13:46:13.789Z,103505.52
2019-02-14T13:47:17.985Z,103500.21
2019-02-14T13:48:22.188Z,103500.69
2019-02-14T13:52:36.553Z,103498.47
2019-02-14T13:53:40.755Z,103499.36
2019-02-14T13:54:45.165Z,103501.56
2019-02-14T13:56:54.333Z,103502.47
2019-02-14T13:59:02.190Z,103498.50
2019-02-14T14:00:16.876Z,103500.30
2019-02-14T14:01:21.153Z,103495.46
2019-02-14T14:05:35.462Z,103492.82
2019-02-14T14:07:43.004Z,103491.91
2019-02-14T14:08:47.163Z,103493.24
2019-02-14T14:11:58.087Z,103486.64
2019-02-14T14:13:03.180Z,103481.31
2019-02-14T14:16:14.385Z,103478.20
2019-02-14T14:17:18.561Z,103472.44
2019-02-14T14:19:28.024Z,103479.91
2019-02-14T14:20:32.260Z,103485.20
2019-02-14T14:21:36.440Z,103487.37
2019-02-14T14:24:47.379Z,103491.72
2019-02-14T14:26:55.085Z,103489.03
2019-02-14T14:29:02.684Z,103492.48
2019-02-14T14:31:15.198Z,103490.22
2019-02-14T14:33:22.753Z,103493.65
2019-02-14T14:35:30.292Z,103492.69
2019-02-14T14:42:54.776Z,103480.34
2019-02-14T14:53:32.023Z,103478.88
2019-02-14T14:54:36.223Z,103478.72
2019-02-14T14:55:40.445Z,103479.55
2019-02-14T14:56:44.645Z,103480.41
2019-02-14T14:57:48.843Z,103478.62
2019-02-14T14:59:56.379Z,103479.15
2019-02-14T15:01:00.635Z,103480.48
2019-02-14T15:03:08.252Z,103472.09
2019-02-14T15:05:16.130Z,103468.52
2019-02-14T15:06:20.331Z,103472.09
2019-02-14T15:07:24.532Z,103472.08
2019-02-14T15:08:28.781Z,103468.99
2019-02-14T15:09:32.939Z,103470.31
2019-02-14T15:10:37.151Z,103471.13
2019-02-14T15:12:44.745Z,103469.35
2019-02-14T15:15:55.713Z,103474.80
2019-02-14T15:16:59.924Z,103475.73
2019-02-14T15:19:07.518Z,103469.55
2019-02-14T15:21:15.101Z,103466.34
2019-02-14T15:22:19.276Z,103470.22
2019-02-14T15:23:23.504Z,103462.77
2019-02-14T15:24:27.716Z,103467.13
2019-02-14T15:26:35.300Z,103461.64
2019-02-14T15:30:50.690Z,103457.86
2019-02-14T15:31:54.892Z,103456.48
2019-02-14T15:35:07.567Z,103450.23
2019-02-14T15:37:15.354Z,103441.91
2019-02-14T15:38:21.453Z,103441.88
2019-02-14T15:40:29.054Z,103447.73
2019-02-14T15:44:43.417Z,103436.50
2019-02-14T15:46:50.962Z,103443.32
2019-02-14T15:47:55.205Z,103441.48
2019-02-14T15:51:07.001Z,103436.22
2019-02-14T15:52:11.211Z,103437.54
2019-02-14T15:56:27.285Z,103430.66
2019-02-14T16:00:42.171Z,103439.15
2019-02-14T16:02:50.380Z,103434.52
2019-02-14T16:10:18.653Z,103426.09
2019-02-14T16:12:25.973Z,103423.19
2019-02-14T16:14:33.609Z,103417.33
2019-02-14T16:17:45.556Z,103413.78
2019-02-14T16:18:49.759Z,103415.42
2019-02-14T16:19:55.933Z,103421.91
2019-02-14T16:22:04.625Z,103417.83
2019-02-14T16:24:12.184Z,103421.12
2019-02-14T16:27:24.682Z,103419.27
2019-02-14T16:29:32.692Z,103414.36
2019-02-14T16:30:36.931Z,103413.90
2019-02-14T16:31:41.135Z,103412.55
2019-02-14T16:32:45.349Z,103410.69
2019-02-14T16:33:49.551Z,103408.45
2019-02-14T16:35:57.108Z,103407.88
2019-02-14T16:41:14.840Z,103409.63
2019-02-14T16:42:19.030Z,103413.02
2019-02-14T16:43:23.507Z,103412.09
2019-02-14T16:45:31.134Z,103413.66
2019-02-14T16:46:35.299Z,103414.80
2019-02-14T16:47:39.502Z,103411.70
2019-02-14T16:48:43.796Z,103414.25
2019-02-14T16:49:47.921Z,103404.55
2019-02-14T16:50:52.510Z,103407.13
2019-02-14T16:54:03.402Z,103408.66
2019-02-14T16:55:07.605Z,103410.25
2019-02-14T16:59:22.050Z,103409.89
2019-02-14T17:01:29.569Z,103409.62
2019-02-14T17:02:33.715Z,103413.05
2019-02-14T17:03:37.991Z,103410.38
2019-02-14T17:04:42.153Z,103414.67
2019-02-14T17:06:49.707Z,103412.23
2019-02-14T17:07:55.945Z,103418.28
2019-02-14T17:10:05.041Z,103413.73
2019-02-14T17:11:09.235Z,103411.95
2019-02-14T17:13:16.840Z,103410.02
2019-02-14T17:15:24.385Z,103409.51
2019-02-14T17:16:28.582Z,103405.42
2019-02-14T17:17:32.787Z,103413.19
2019-02-14T17:18:37.158Z,103408.78
2019-02-14T17:20:45.871Z,103416.91
2019-02-14T17:22:53.414Z,103423.42
2019-02-14T17:23:57.669Z,103423.78
2019-02-14T17:26:05.252Z,103423.98
2019-02-14T17:33:29.721Z,103423.36
2019-02-14T17:34:33.873Z,103422.87
2019-02-14T17:35:38.045Z,103425.86
2019-02-14T17:37:45.665Z,103426.53
2019-02-14T17:38:50.174Z,103427.74
2019-02-14T17:39:54.460Z,103425.73
2019-02-14T17:40:58.788Z,103423.95
2019-02-14T17:42:03.959Z,103424.84
2019-02-14T17:43:08.116Z,103427.46
2019-02-14T17:44:12.313Z,103416.87
2019-02-14T17:46:19.844Z,103425.52
2019-02-14T17:49:30.967Z,103423.61
2019-02-14T17:50:35.303Z,103423.92
2019-02-14T17:51:39.468Z,103427.72
2019-02-14T17:52:44.619Z,103424.69
2019-02-14T17:54:52.164Z,103431.48
2019-02-14T17:55:56.331Z,103427.91
2019-02-14T17:59:07.705Z,103426.36
2019-02-14T18:01:15.705Z,103423.19
2019-02-14T18:07:36.832Z,103422.81
2019-02-14T18:09:44.433Z,103418.67
2019-02-14T18:11:52.011Z,103424.13
2019-02-14T18:12:56.163Z,103415.81
2019-02-14T18:22:30.003Z,103424.53
2019-02-14T18:24:37.527Z,103415.91
2019-02-14T18:27:48.542Z,103418.68
2019-02-14T18:28:52.741Z,103425.16
2019-02-14T18:29:56.940Z,103423.17
2019-02-14T18:32:04.516Z,103421.92
2019-02-14T18:34:12.015Z,103417.39
2019-02-14T18:37:22.938Z,103420.30
2019-02-14T18:38:27.095Z,103418.88
2019-02-14T18:40:34.698Z,103421.41
2019-02-14T18:41:39.912Z,103423.96
2019-02-14T18:45:56.833Z,103428.16
2019-02-14T18:47:01.035Z,103426.19
2019-02-14T18:50:12.860Z,103426.81
2019-02-14T18:51:17.253Z,103434.17
2019-02-14T18:52:21.397Z,103430.73
2019-02-14T18:56:35.722Z,103437.61
2019-02-14T18:57:39.932Z,103434.38
2019-02-14T19:00:52.365Z,103439.87
2019-02-14T19:06:12.429Z,103438.28
2019-02-14T19:08:20.004Z,103439.05
2019-02-14T19:09:24.257Z,103432.05
2019-02-14T19:10:28.415Z,103428.55
2019-02-14T19:12:35.917Z,103431.98
2019-02-14T19:13:40.733Z,103429.31
2019-02-14T19:20:06.383Z,103433.84
2019-02-14T19:21:10.985Z,103439.00
2019-02-14T19:25:25.374Z,103434.93
2019-02-14T19:27:33.140Z,103439.99
2019-02-14T19:28:37.285Z,103438.56
2019-02-14T19:31:48.534Z,103431.14
2019-02-14T19:32:52.685Z,103430.66
2019-02-14T19:33:56.947Z,103431.02
2019-02-14T19:35:01.160Z,103428.82
2019-02-14T19:40:19.844Z,103429.55
2019-02-14T19:41:25.561Z,103428.05
2019-02-14T19:43:33.508Z,103432.86
2019-02-14T19:47:47.810Z,103426.94
2019-02-14T19:49:55.341Z,103426.17
2019-02-14T19:53:06.243Z,103424.52
2019-02-14T19:57:20.641Z,103417.33
2019-02-14T19:58:24.783Z,103418.63
2019-02-14T19:59:29.051Z,103416.91
2019-02-14T20:00:33.217Z,103418.19
2019-02-14T20:01:37.454Z,103416.34
2019-02-14T20:04:48.632Z,103420.06
2019-02-14T20:05:52.927Z,103420.95
2019-02-14T20:06:57.059Z,103413.61
2019-02-14T20:08:01.200Z,103414.50
2019-02-14T20:11:16.322Z,103413.95
2019-02-14T20:14:27.358Z,103409.47
2019-02-14T20:15:37.528Z,103406.03
2019-02-14T20:18:48.254Z,103408.09
2019-02-14T20:19:52.396Z,103408.86
2019-02-14T20:23:03.305Z,103401.31
2019-02-14T20:24:07.503Z,103402.97
2019-02-14T20:25:21.953Z,103398.70
2019-02-14T20:27:29.722Z,103396.99
2019-02-14T20:28:34.128Z,103403.03
2019-02-14T20:29:38.289Z,103402.97
2019-02-14T20:33:52.570Z,103408.44
2019-02-14T20:37:04.501Z,103405.56
2019-02-14T20:40:15.411Z,103403.67
2019-02-14T20:42:23.318Z,103404.98
2019-02-14T20:45:34.265Z,103400.84
2019-02-14T20:47:42.057Z,103400.70
2019-02-14T20:48:46.463Z,103402.83
2019-02-14T20:49:50.874Z,103397.97
2019-02-14T20:55:12.008Z,103389.08
2019-02-14T20:58:23.470Z,103388.95
2019-02-14T21:00:30.976Z,103386.24
2019-02-14T21:03:42.103Z,103382.95
2019-02-14T21:04:46.361Z,103387.72
2019-02-14T21:05:51.620Z,103390.77
2019-02-14T21:06:55.979Z,103389.84
2019-02-14T21:09:04.574Z,103392.66
2019-02-14T21:10:09.904Z,103392.66
2019-02-14T21:11:14.139Z,103381.31
2019-02-14T21:12:18.314Z,103385.63
2019-02-14T21:18:39.361Z,103381.24
2019-02-14T21:28:10.508Z,103380.31
2019-02-14T21:29:15.713Z,103379.83
2019-02-14T21:30:20.351Z,103385.94
2019-02-14T21:31:25.793Z,103383.27
2019-02-14T21:32:30.310Z,103385.35
2019-02-14T21:37:48.337Z,103386.27
2019-02-14T21:38:52.710Z,103384.96
2019-02-14T21:41:00.529Z,103385.16
2019-02-14T21:42:19.425Z,103379.03
2019-02-14T21:43:11.036Z,103380.33
2019-02-14T21:48:28.791Z,103379.53
2019-02-14T21:50:36.613Z,103386.45
2019-02-14T21:55:54.564Z,103377.49
2019-02-14T21:56:58.986Z,103377.35
2019-02-14T22:01:19.741Z,103373.86
2019-02-14T22:03:27.503Z,103378.09
2019-02-14T22:04:31.910Z,103377.58
2019-02-14T22:05:36.046Z,103377.84
2019-02-14T22:07:43.574Z,103381.12
2019-02-14T22:08:47.975Z,103379.78
2019-02-14T22:14:05.976Z,103374.36
2019-02-14T22:15:29.959Z,103371.34
2019-02-14T22:18:41.088Z,103375.89
2019-02-14T22:19:46.464Z,103375.81
2019-02-14T22:21:54.003Z,103376.70
2019-02-14T22:25:07.647Z,103377.94
2019-02-14T22:26:13.593Z,103374.40
2019-02-14T22:27:17.743Z,103374.81
2019-02-14T22:29:25.638Z,103371.31
2019-02-14T22:32:36.550Z,103371.98
2019-02-14T22:37:54.165Z,103368.64
2019-02-14T22:38:58.504Z,103375.14
2019-02-14T22:44:16.511Z,103373.77
2019-02-14T22:47:27.455Z,103366.59
2019-02-14T22:48:32.784Z,103368.30
2019-02-14T22:49:36.937Z,103369.19
2019-02-14T22:50:42.229Z,103369.59
2019-02-14T22:56:00.058Z,103369.52
2019-02-14T22:57:04.215Z,103370.27
2019-02-14T22:58:08.467Z,103368.92
2019-02-14T23:00:24.773Z,103366.17
2019-02-14T23:01:30.564Z,103366.02
2019-02-14T23:03:38.092Z,103369.24
2019-02-14T23:04:42.256Z,103364.61
2019-02-14T23:08:56.531Z,103366.23
2019-02-14T23:11:04.050Z,103371.24
2019-02-14T23:12:08.206Z,103368.56
2019-02-14T23:16:22.512Z,103362.55
2019-02-14T23:17:26.919Z,103365.41
2019-02-14T23:18:31.063Z,103358.91
2019-02-14T23:19:35.316Z,103358.83
2019-02-14T23:20:39.441Z,103360.12
2019-02-14T23:24:53.789Z,103361.02
2019-02-14T23:27:01.325Z,103361.02
2019-02-14T23:28:05.487Z,103357.94
2019-02-14T23:29:09.639Z,103361.35
2019-02-14T23:32:20.781Z,103355.95
2019-02-14T23:33:24.936Z,103359.78
2019-02-14T23:35:32.568Z,103360.52
2019-02-14T23:36:37.027Z,103354.38
2019-02-14T23:43:04.455Z,103357.03
2019-02-14T23:50:27.453Z,103354.84
2019-02-14T23:51:31.572Z,103354.77
2019-02-14T23:52:35.751Z,103354.69
2019-02-14T23:53:39.933Z,103358.26
2019-02-14T23:54:44.241Z,103352.58
2019-02-14T23:57:55.236Z,103356.61
2019-02-14T23:58:59.436Z,103358.23
